createdAt,value
2018-07-14T00:01:12.116Z,100444.31
2018-07-14T00:03:40.279Z,100449.08
2018-07-14T00:06:08.450Z,100450.36
2018-07-14T00:08:36.726Z,100455.61
2018-07-14T00:11:04.833Z,100452.95
2018-07-14T00:13:33.082Z,100448.23
2018-07-14T00:16:01.139Z,100452.57
2018-07-14T00:18:29.223Z,100447.37
2018-07-14T00:20:57.286Z,100452.57
2018-07-14T00:23:25.504Z,100450.83
2018-07-14T00:25:58.965Z,100443.02
2018-07-14T00:28:27.108Z,100441.72
2018-07-14T00:30:55.158Z,100443.41
2018-07-14T00:33:23.233Z,100446.48
2018-07-14T00:35:51.341Z,100446.94
2018-07-14T00:38:19.469Z,100444.31
2018-07-14T00:40:47.585Z,100440.87
2018-07-14T00:43:15.698Z,100443.45
2018-07-14T00:45:43.796Z,100445.20
2018-07-14T00:48:12.117Z,100445.20
2018-07-14T00:50:40.401Z,100443.03
2018-07-14T00:53:08.527Z,100446.51
2018-07-14T00:55:36.709Z,100447.36
2018-07-14T00:58:05.067Z,100445.61
2018-07-14T01:00:33.272Z,100440.42
2018-07-14T01:03:01.385Z,100446.48
2018-07-14T01:05:29.441Z,100456.02
2018-07-14T01:07:57.630Z,100457.74
2018-07-14T01:10:25.731Z,100455.16
2018-07-14T01:12:53.823Z,100448.23
2018-07-14T01:15:21.896Z,100451.70
2018-07-14T01:17:50.074Z,100451.70
2018-07-14T01:20:18.128Z,100449.54
2018-07-14T01:22:46.286Z,100452.12
2018-07-14T01:25:14.469Z,100454.72
2018-07-14T01:27:42.694Z,100446.95
2018-07-14T01:30:10.892Z,100454.30
2018-07-14T01:32:39.031Z,100452.99
2018-07-14T01:35:07.642Z,100457.32
2018-07-14T01:37:35.852Z,100448.23
2018-07-14T01:40:04.020Z,100445.64
2018-07-14T01:42:32.305Z,100449.55
2018-07-14T01:45:00.554Z,100440.45
2018-07-14T01:47:29.077Z,100440.03
2018-07-14T01:49:57.251Z,100436.50
2018-07-14T01:52:25.458Z,100438.67
2018-07-14T01:54:53.543Z,100437.80
2018-07-14T01:57:21.716Z,100439.95
2018-07-14T01:59:50.049Z,100434.27
2018-07-14T02:02:18.183Z,100436.89
2018-07-14T02:04:46.277Z,100440.36
2018-07-14T02:07:14.532Z,100435.84
2018-07-14T02:09:42.611Z,100436.89
2018-07-14T02:12:10.807Z,100435.58
2018-07-14T02:14:38.906Z,100438.47
2018-07-14T02:17:06.978Z,100435.13
2018-07-14T02:19:35.045Z,100443.44
2018-07-14T02:22:03.154Z,100443.81
2018-07-14T02:24:32.543Z,100447.30
2018-07-14T02:27:00.605Z,100449.01
2018-07-14T02:29:28.698Z,100448.52
2018-07-14T02:31:56.825Z,100444.23
2018-07-14T02:34:24.931Z,100450.69
2018-07-14T02:36:53.280Z,100449.86
2018-07-14T02:39:21.351Z,100449.33
2018-07-14T02:41:50.343Z,100455.73
2018-07-14T02:44:18.882Z,100459.61
2018-07-14T02:46:47.628Z,100460.61
2018-07-14T02:49:15.775Z,100462.70
2018-07-14T02:51:44.128Z,100465.23
2018-07-14T02:54:12.240Z,100470.30
2018-07-14T02:56:40.680Z,100469.88
2018-07-14T02:59:08.973Z,100467.47
2018-07-14T03:01:37.030Z,100467.06
2018-07-14T03:04:05.145Z,100468.69
2018-07-14T03:06:34.112Z,100471.44
2018-07-14T03:09:02.255Z,100470.54
2018-07-14T03:11:32.105Z,100467.89
2018-07-14T03:14:00.238Z,100456.63
2018-07-14T03:16:28.619Z,100465.24
2018-07-14T03:18:56.807Z,100458.29
2018-07-14T03:21:24.882Z,100469.84
2018-07-14T03:23:52.996Z,100461.83
2018-07-14T03:26:21.087Z,100465.48
2018-07-14T03:28:49.684Z,100465.48
2018-07-14T03:31:17.976Z,100459.52
2018-07-14T03:33:46.220Z,100460.92
2018-07-14T03:36:14.303Z,100456.59
2018-07-14T03:38:42.387Z,100456.51
2018-07-14T03:41:10.861Z,100472.27
2018-07-14T03:43:39.027Z,100461.81
2018-07-14T03:46:07.106Z,100468.29
2018-07-14T03:48:35.343Z,100461.75
2018-07-14T03:51:03.483Z,100467.77
2018-07-14T03:53:31.572Z,100469.98
2018-07-14T03:55:59.699Z,100470.75
2018-07-14T03:58:27.811Z,100472.96
2018-07-14T04:00:55.880Z,100466.52
2018-07-14T04:03:24.209Z,100464.42
2018-07-14T04:05:52.276Z,100467.48
2018-07-14T04:08:20.403Z,100473.07
2018-07-14T04:10:49.134Z,100473.44
2018-07-14T04:13:17.228Z,100478.50
2018-07-14T04:15:45.493Z,100480.70
2018-07-14T04:18:13.571Z,100478.09
2018-07-14T04:20:41.958Z,100486.79
2018-07-14T04:23:10.957Z,100493.64
2018-07-14T04:25:39.112Z,100496.42
2018-07-14T04:28:07.227Z,100493.53
2018-07-14T04:30:35.351Z,100504.67
2018-07-14T04:33:03.521Z,100502.22
2018-07-14T04:35:31.614Z,100503.02
2018-07-14T04:37:59.742Z,100500.54
2018-07-14T04:40:27.813Z,100494.13
2018-07-14T04:42:56.015Z,100484.64
2018-07-14T04:45:24.134Z,100481.03
2018-07-14T04:47:52.395Z,100474.61
2018-07-14T04:50:20.499Z,100474.48
2018-07-14T04:52:48.643Z,100466.73
2018-07-14T04:55:16.770Z,100460.72
2018-07-14T04:57:45.518Z,100463.92
2018-07-14T05:00:13.643Z,100455.98
2018-07-14T05:02:41.761Z,100456.49
2018-07-14T05:05:09.963Z,100461.19
2018-07-14T05:07:38.201Z,100467.72
2018-07-14T05:10:06.428Z,100468.55
2018-07-14T05:12:34.654Z,100474.55
2018-07-14T05:15:02.799Z,100470.52
2018-07-14T05:17:30.922Z,100477.37
2018-07-14T05:19:58.999Z,100471.86
2018-07-14T05:22:27.506Z,100477.98
2018-07-14T05:24:55.630Z,100471.50
2018-07-14T05:27:23.847Z,100469.95
2018-07-14T05:29:51.967Z,100469.83
2018-07-14T05:32:20.141Z,100466.16
2018-07-14T05:34:48.759Z,100461.41
2018-07-14T05:37:16.941Z,100469.64
2018-07-14T05:39:45.031Z,100477.20
2018-07-14T05:42:14.119Z,100489.34
2018-07-14T05:44:42.347Z,100484.63
2018-07-14T05:47:11.164Z,100483.45
2018-07-14T05:49:39.333Z,100479.17
2018-07-14T05:52:07.391Z,100490.42
2018-07-14T05:54:35.655Z,100493.00
2018-07-14T05:57:03.711Z,100489.23
2018-07-14T05:59:31.794Z,100492.38
2018-07-14T06:01:59.843Z,100493.69
2018-07-14T06:04:27.952Z,100493.16
2018-07-14T06:06:56.108Z,100494.69
2018-07-14T06:09:24.192Z,100493.00
2018-07-14T06:11:52.324Z,100491.70
2018-07-14T06:14:20.504Z,100489.95
2018-07-14T06:16:48.545Z,100493.38
2018-07-14T06:19:16.711Z,100496.57
2018-07-14T06:21:44.790Z,100495.68
2018-07-14T06:24:12.931Z,100492.32
2018-07-14T06:26:41.351Z,100505.70
2018-07-14T06:29:09.434Z,100498.37
2018-07-14T06:31:37.516Z,100504.92
2018-07-14T06:34:06.650Z,100504.02
2018-07-14T06:36:34.734Z,100504.42
2018-07-14T06:39:02.823Z,100508.39
2018-07-14T06:41:30.925Z,100503.53
2018-07-14T06:43:59.025Z,100499.67
2018-07-14T06:46:27.618Z,100500.96
2018-07-14T06:48:55.846Z,100496.20
2018-07-14T06:51:24.092Z,100496.20
2018-07-14T06:53:52.160Z,100497.53
2018-07-14T06:56:20.278Z,100496.28
2018-07-14T06:58:48.440Z,100495.77
2018-07-14T07:01:16.552Z,100497.59
2018-07-14T07:03:44.647Z,100497.59
2018-07-14T07:06:12.927Z,100498.88
2018-07-14T07:08:41.599Z,100495.43
2018-07-14T07:11:09.731Z,100498.02
2018-07-14T07:13:37.901Z,100498.45
2018-07-14T07:16:06.031Z,100499.75
2018-07-14T07:18:34.143Z,100494.55
2018-07-14T07:21:02.250Z,100494.13
2018-07-14T07:23:30.520Z,100487.19
2018-07-14T07:25:58.677Z,100488.49
2018-07-14T07:28:26.799Z,100486.77
2018-07-14T07:30:54.992Z,100489.80
2018-07-14T07:33:23.085Z,100492.40
2018-07-14T07:35:51.203Z,100490.66
2018-07-14T07:38:19.257Z,100496.70
2018-07-14T07:40:47.384Z,100492.80
2018-07-14T07:43:15.489Z,100495.41
2018-07-14T07:45:43.586Z,100494.07
2018-07-14T07:48:11.667Z,100496.65
2018-07-14T07:50:39.774Z,100498.81
2018-07-14T07:53:07.851Z,100504.48
2018-07-14T07:55:35.935Z,100498.78
2018-07-14T07:58:04.706Z,100500.52
2018-07-14T08:00:32.893Z,100502.23
2018-07-14T08:03:01.057Z,100495.25
2018-07-14T08:05:29.182Z,100494.80
2018-07-14T08:07:57.259Z,100494.36
2018-07-14T08:10:25.360Z,100494.34
2018-07-14T08:12:53.596Z,100493.00
2018-07-14T08:15:21.789Z,100493.00
2018-07-14T08:17:50.296Z,100489.95
2018-07-14T08:20:19.512Z,100496.90
2018-07-14T08:22:47.799Z,100492.05
2018-07-14T08:25:16.175Z,100492.45
2018-07-14T08:27:44.274Z,100491.94
2018-07-14T08:30:12.401Z,100494.08
2018-07-14T08:32:40.496Z,100490.63
2018-07-14T08:35:08.648Z,100494.41
2018-07-14T08:37:39.549Z,100492.25
2018-07-14T08:40:07.754Z,100491.30
2018-07-14T08:42:35.983Z,100494.73
2018-07-14T08:45:04.139Z,100499.89
2018-07-14T08:47:32.249Z,100493.44
2018-07-14T08:50:00.387Z,100488.16
2018-07-14T08:52:28.504Z,100490.77
2018-07-14T08:54:56.610Z,100492.08
2018-07-14T08:57:24.722Z,100483.64
2018-07-14T08:59:52.828Z,100482.31
2018-07-14T09:02:20.892Z,100483.48
2018-07-14T09:04:49.064Z,100478.69
2018-07-14T09:07:17.107Z,100478.17
2018-07-14T09:09:45.187Z,100466.88
2018-07-14T09:12:13.294Z,100460.35
2018-07-14T09:14:42.140Z,100464.66
2018-07-14T09:17:10.537Z,100464.48
2018-07-14T09:19:38.632Z,100457.50
2018-07-14T09:22:06.701Z,100456.59
2018-07-14T09:24:34.827Z,100457.34
2018-07-14T09:27:03.049Z,100448.59
2018-07-14T09:29:31.388Z,100447.95
2018-07-14T09:31:59.514Z,100447.86
2018-07-14T09:34:27.713Z,100439.32
2018-07-14T09:36:55.873Z,100438.24
2018-07-14T09:39:23.933Z,100437.30
2018-07-14T09:41:51.994Z,100441.13
2018-07-14T09:44:20.260Z,100440.95
2018-07-14T09:46:48.917Z,100445.25
2018-07-14T09:49:16.978Z,100443.95
2018-07-14T09:51:45.112Z,100440.37
2018-07-14T09:54:13.567Z,100438.80
2018-07-14T09:56:42.202Z,100434.03
2018-07-14T09:59:10.316Z,100438.51
2018-07-14T10:01:39.294Z,100432.17
2018-07-14T10:04:07.840Z,100432.45
2018-07-14T10:06:36.116Z,100438.88
2018-07-14T10:09:04.735Z,100433.84
2018-07-14T10:11:32.893Z,100428.35
2018-07-14T10:14:00.983Z,100425.36
2018-07-14T10:16:29.156Z,100416.75
2018-07-14T10:18:57.242Z,100413.97
2018-07-14T10:21:25.530Z,100415.45
2018-07-14T10:23:53.641Z,100421.91
2018-07-14T10:26:22.281Z,100414.29
2018-07-14T10:28:50.492Z,100406.58
2018-07-14T10:31:18.576Z,100414.73
2018-07-14T10:33:46.936Z,100407.52
2018-07-14T10:36:15.808Z,100400.89
2018-07-14T10:38:43.974Z,100401.34
2018-07-14T10:41:12.576Z,100397.36
2018-07-14T10:43:40.732Z,100403.47
2018-07-14T10:46:08.762Z,100395.09
2018-07-14T10:48:36.942Z,100396.22
2018-07-14T10:51:05.000Z,100397.98
2018-07-14T10:53:33.055Z,100392.87
2018-07-14T10:56:01.175Z,100384.30
2018-07-14T10:58:29.248Z,100384.36
2018-07-14T11:00:57.324Z,100380.45
2018-07-14T11:03:25.439Z,100376.06
2018-07-14T11:05:53.715Z,100369.61
2018-07-14T11:08:22.126Z,100366.43
2018-07-14T11:10:50.272Z,100365.89
2018-07-14T11:13:20.618Z,100366.43
2018-07-14T11:15:48.661Z,100369.03
2018-07-14T11:18:41.406Z,100360.09
2018-07-14T11:21:22.869Z,100352.59
2018-07-14T11:23:51.100Z,100346.30
2018-07-14T11:26:19.221Z,100345.95
2018-07-14T11:28:47.392Z,100344.53
2018-07-14T11:31:15.764Z,100334.16
2018-07-14T11:33:43.968Z,100341.17
2018-07-14T11:36:12.779Z,100336.44
2018-07-14T11:38:41.603Z,100340.48
2018-07-14T11:41:09.786Z,100334.44
2018-07-14T11:43:37.879Z,100339.37
2018-07-14T11:46:05.992Z,100330.64
2018-07-14T11:48:34.088Z,100333.16
2018-07-14T11:51:02.379Z,100322.42
2018-07-14T11:53:30.515Z,100317.38
2018-07-14T11:55:58.836Z,100319.61
2018-07-14T11:58:27.082Z,100315.59
2018-07-14T12:00:55.432Z,100317.59
2018-07-14T12:03:23.846Z,100314.36
2018-07-14T12:05:51.999Z,100312.92
2018-07-14T12:08:20.303Z,100305.53
2018-07-14T12:10:48.520Z,100299.49
2018-07-14T12:13:16.658Z,100295.73
2018-07-14T12:15:44.730Z,100301.88
2018-07-14T12:18:19.215Z,100295.49
2018-07-14T12:20:47.279Z,100294.28
2018-07-14T12:23:15.390Z,100280.87
2018-07-14T12:25:43.508Z,100284.70
2018-07-14T12:28:12.123Z,100280.63
2018-07-14T12:30:40.296Z,100282.86
2018-07-14T12:33:08.468Z,100272.33
2018-07-14T12:35:36.574Z,100272.48
2018-07-14T12:38:04.768Z,100273.03
2018-07-14T12:40:32.883Z,100271.25
2018-07-14T12:43:01.047Z,100270.72
2018-07-14T12:45:29.270Z,100263.86
2018-07-14T12:47:57.405Z,100256.72
2018-07-14T12:50:25.670Z,100249.85
2018-07-14T12:53:02.248Z,100252.44
2018-07-14T12:55:43.270Z,100248.78
2018-07-14T12:58:11.863Z,100249.87
2018-07-14T13:00:39.983Z,100239.73
2018-07-14T13:03:09.310Z,100245.11
2018-07-14T13:05:37.410Z,100243.81
2018-07-14T13:08:05.867Z,100240.85
2018-07-14T13:10:34.008Z,100229.89
2018-07-14T13:13:02.103Z,100226.38
2018-07-14T13:15:30.203Z,100229.30
2018-07-14T13:17:58.381Z,100230.41
2018-07-14T13:20:26.516Z,100228.23
2018-07-14T13:22:54.719Z,100225.47
2018-07-14T13:25:22.826Z,100211.61
2018-07-14T13:27:50.947Z,100203.64
2018-07-14T13:30:19.032Z,100206.86
2018-07-14T13:32:47.098Z,100205.94
2018-07-14T13:35:15.230Z,100204.28
2018-07-14T13:37:43.273Z,100207.67
2018-07-14T13:40:11.357Z,100203.50
2018-07-14T13:42:39.472Z,100195.47
2018-07-14T13:45:07.543Z,100206.12
2018-07-14T13:47:35.746Z,100208.62
2018-07-14T13:50:03.994Z,100206.53
2018-07-14T13:52:32.355Z,100204.81
2018-07-14T13:55:01.703Z,100197.25
2018-07-14T13:57:30.032Z,100197.01
2018-07-14T13:59:58.304Z,100192.98
2018-07-14T14:02:26.607Z,100189.75
2018-07-14T14:04:55.088Z,100185.50
2018-07-14T14:07:25.413Z,100192.56
2018-07-14T14:09:53.787Z,100193.66
2018-07-14T14:12:22.154Z,100187.17
2018-07-14T14:14:50.546Z,100191.57
2018-07-14T14:17:19.317Z,100182.70
2018-07-14T14:19:47.769Z,100186.67
2018-07-14T14:22:16.036Z,100181.94
2018-07-14T14:24:44.274Z,100183.56
2018-07-14T14:27:13.372Z,100182.95
2018-07-14T14:29:41.832Z,100180.21
2018-07-14T14:32:10.106Z,100181.33
2018-07-14T14:34:38.276Z,100175.09
2018-07-14T14:37:06.554Z,100165.49
2018-07-14T14:39:35.630Z,100162.55
2018-07-14T14:42:05.714Z,100163.33
2018-07-14T14:44:35.330Z,100165.44
2018-07-14T14:47:03.688Z,100170.39
2018-07-14T14:49:31.956Z,100168.30
2018-07-14T14:52:00.255Z,100163.30
2018-07-14T14:54:28.754Z,100154.75
2018-07-14T14:56:56.872Z,100154.73
2018-07-14T14:59:25.465Z,100161.48
2018-07-14T15:01:53.828Z,100150.44
2018-07-14T15:04:22.227Z,100146.66
2018-07-14T15:06:50.737Z,100145.06
2018-07-14T15:09:18.962Z,100142.31
2018-07-14T15:11:47.328Z,100139.80
2018-07-14T15:14:15.760Z,100148.09
2018-07-14T15:16:45.633Z,100156.63
2018-07-14T15:19:14.306Z,100151.20
2018-07-14T15:21:42.824Z,100148.63
2018-07-14T15:24:11.068Z,100144.05
2018-07-14T15:26:39.793Z,100141.45
2018-07-14T15:29:08.346Z,100150.24
2018-07-14T15:31:37.930Z,100149.64
2018-07-14T15:34:06.920Z,100153.16
2018-07-14T15:36:35.542Z,100145.27
2018-07-14T15:39:05.066Z,100142.13
2018-07-14T15:41:33.348Z,100147.18
2018-07-14T15:44:01.606Z,100146.15
2018-07-14T15:46:29.762Z,100143.59
2018-07-14T15:48:58.051Z,100150.83
2018-07-14T15:51:26.360Z,100141.58
2018-07-14T15:53:54.612Z,100143.73
2018-07-14T15:56:22.742Z,100140.03
2018-07-14T15:58:51.375Z,100142.45
2018-07-14T16:01:19.942Z,100141.34
2018-07-14T16:03:48.151Z,100144.00
2018-07-14T16:06:16.255Z,100136.32
2018-07-14T16:08:44.408Z,100134.27
2018-07-14T16:11:12.596Z,100137.84
2018-07-14T16:13:41.511Z,100136.91
2018-07-14T16:16:09.687Z,100132.44
2018-07-14T16:18:38.100Z,100132.10
2018-07-14T16:21:06.537Z,100125.28
2018-07-14T16:23:34.851Z,100131.50
2018-07-14T16:26:02.965Z,100129.98
2018-07-14T16:28:31.201Z,100126.13
2018-07-14T16:31:00.353Z,100122.89
2018-07-14T16:33:28.541Z,100123.41
2018-07-14T16:35:56.774Z,100125.41
2018-07-14T16:38:24.883Z,100121.63
2018-07-14T16:40:52.964Z,100113.66
2018-07-14T16:43:21.086Z,100115.34
2018-07-14T16:45:49.143Z,100113.95
2018-07-14T16:48:17.699Z,100110.60
2018-07-14T16:50:45.815Z,100107.63
2018-07-14T16:53:14.643Z,100111.81
2018-07-14T16:55:42.959Z,100107.42
2018-07-14T16:58:11.054Z,100105.05
2018-07-14T17:00:39.337Z,100099.25
2018-07-14T17:03:07.389Z,100104.14
2018-07-14T17:05:35.459Z,100102.60
2018-07-14T17:08:03.586Z,100097.73
2018-07-14T17:10:31.739Z,100099.97
2018-07-14T17:12:59.904Z,100088.43
2018-07-14T17:15:27.958Z,100094.16
2018-07-14T17:17:56.075Z,100096.06
2018-07-14T17:20:24.310Z,100094.89
2018-07-14T17:22:52.384Z,100084.45
2018-07-14T17:25:20.564Z,100087.64
2018-07-14T17:27:48.759Z,100088.81
2018-07-14T17:30:17.735Z,100086.00
2018-07-14T17:32:45.879Z,100088.00
2018-07-14T17:35:14.410Z,100088.78
2018-07-14T17:37:42.515Z,100093.11
2018-07-14T17:40:10.576Z,100084.52
2018-07-14T17:42:38.649Z,100086.64
2018-07-14T17:45:06.986Z,100087.96
2018-07-14T17:47:35.093Z,100085.86
2018-07-14T17:50:03.541Z,100086.52
2018-07-14T17:52:31.707Z,100093.80
2018-07-14T17:54:59.776Z,100100.61
2018-07-14T17:57:27.897Z,100095.88
2018-07-14T17:59:56.042Z,100094.50
2018-07-14T18:02:24.304Z,100099.38
2018-07-14T18:04:52.446Z,100099.03
2018-07-14T18:07:20.582Z,100097.11
2018-07-14T18:09:48.712Z,100104.08
2018-07-14T18:12:16.776Z,100099.41
2018-07-14T18:14:45.607Z,100099.09
2018-07-14T18:17:14.822Z,100098.52
2018-07-14T18:19:42.865Z,100100.01
2018-07-14T18:22:11.040Z,100095.61
2018-07-14T18:24:39.292Z,100093.55
2018-07-14T18:27:07.439Z,100088.58
2018-07-14T18:29:35.521Z,100091.20
2018-07-14T18:32:03.638Z,100095.48
2018-07-14T18:34:31.771Z,100090.38
2018-07-14T18:36:59.883Z,100092.29
2018-07-14T18:39:27.956Z,100094.88
2018-07-14T18:41:56.045Z,100098.31
2018-07-14T18:44:24.501Z,100096.16
2018-07-14T18:46:52.570Z,100098.73
2018-07-14T18:49:20.667Z,100105.44
2018-07-14T18:51:48.974Z,100100.45
2018-07-14T18:54:17.093Z,100096.98
2018-07-14T18:56:45.390Z,100096.95
2018-07-14T18:59:14.749Z,100101.73
2018-07-14T19:01:42.816Z,100105.09
2018-07-14T19:04:10.902Z,100107.12
2018-07-14T19:06:38.986Z,100106.23
2018-07-14T19:09:07.167Z,100113.39
2018-07-14T19:11:35.174Z,100108.39
2018-07-14T19:14:03.324Z,100106.53
2018-07-14T19:16:31.450Z,100110.98
2018-07-14T19:18:59.552Z,100105.55
2018-07-14T19:21:27.661Z,100113.55
2018-07-14T19:23:56.241Z,100120.98
2018-07-14T19:26:24.488Z,100117.84
2018-07-14T19:28:52.657Z,100119.67
2018-07-14T19:31:21.423Z,100115.56
2018-07-14T19:33:49.597Z,100119.38
2018-07-14T19:36:17.652Z,100127.27
2018-07-14T19:38:45.821Z,100124.71
2018-07-14T19:41:15.020Z,100124.44
2018-07-14T19:43:43.102Z,100135.22
2018-07-14T19:46:11.197Z,100137.48
2018-07-14T19:48:51.929Z,100147.78
2018-07-14T19:51:23.120Z,100139.72
2018-07-14T19:53:51.293Z,100145.27
2018-07-14T19:56:19.418Z,100145.66
2018-07-14T19:58:47.455Z,100151.22
2018-07-14T20:01:15.779Z,100153.59
2018-07-14T20:03:44.085Z,100155.39
2018-07-14T20:06:12.305Z,100151.84
2018-07-14T20:08:43.697Z,100150.50
2018-07-14T20:11:11.992Z,100153.93
2018-07-14T20:13:40.160Z,100154.52
2018-07-14T20:16:09.703Z,100157.14
2018-07-14T20:18:38.215Z,100163.75
2018-07-14T20:21:06.418Z,100167.77
2018-07-14T20:23:34.693Z,100164.08
2018-07-14T20:26:02.750Z,100170.20
2018-07-14T20:28:30.844Z,100164.18
2018-07-14T20:30:58.979Z,100165.84
2018-07-14T20:33:27.124Z,100167.61
2018-07-14T20:35:55.779Z,100166.20
2018-07-14T20:38:23.866Z,100168.39
2018-07-14T20:40:51.993Z,100172.31
2018-07-14T20:43:20.054Z,100173.47
2018-07-14T20:45:48.187Z,100173.20
2018-07-14T20:48:16.336Z,100170.70
2018-07-14T20:50:45.610Z,100166.75
2018-07-14T20:53:13.735Z,100170.03
2018-07-14T20:55:41.972Z,100181.28
2018-07-14T20:58:10.053Z,100180.48
2018-07-14T21:00:38.178Z,100184.70
2018-07-14T21:03:06.475Z,100193.14
2018-07-14T21:05:34.668Z,100192.92
2018-07-14T21:08:02.774Z,100190.23
2018-07-14T21:10:30.887Z,100189.16
2018-07-14T21:12:58.980Z,100192.17
2018-07-14T21:15:27.069Z,100195.27
2018-07-14T21:17:55.237Z,100192.77
2018-07-14T21:20:23.323Z,100186.52
2018-07-14T21:22:51.883Z,100183.67
2018-07-14T21:25:20.016Z,100188.88
2018-07-14T21:27:48.144Z,100194.91
2018-07-14T21:30:16.300Z,100187.78
2018-07-14T21:32:44.371Z,100191.48
2018-07-14T21:35:12.475Z,100194.81
2018-07-14T21:37:40.525Z,100203.27
2018-07-14T21:40:08.689Z,100206.96
2018-07-14T21:42:36.723Z,100199.00
2018-07-14T21:45:04.852Z,100197.24
2018-07-14T21:47:32.909Z,100204.61
2018-07-14T21:50:00.968Z,100202.55
2018-07-14T21:52:29.510Z,100203.25
2018-07-14T21:54:58.612Z,100202.84
2018-07-14T21:57:26.677Z,100208.43
2018-07-14T21:59:54.793Z,100208.43
2018-07-14T22:02:22.864Z,100208.43
2018-07-14T22:04:50.932Z,100211.16
2018-07-14T22:07:19.017Z,100212.30
2018-07-14T22:09:47.700Z,100222.32
2018-07-14T22:12:18.983Z,100211.16
2018-07-14T22:14:47.872Z,100211.13
2018-07-14T22:17:15.945Z,100214.83
2018-07-14T22:19:44.012Z,100220.36
2018-07-14T22:22:12.100Z,100223.27
2018-07-14T22:24:40.171Z,100217.22
2018-07-14T22:27:08.372Z,100217.39
2018-07-14T22:29:36.494Z,100219.75
2018-07-14T22:32:04.596Z,100215.17
2018-07-14T22:34:32.684Z,100222.45
2018-07-14T22:37:00.872Z,100221.30
2018-07-14T22:39:29.179Z,100219.13
2018-07-14T22:41:57.321Z,100222.19
2018-07-14T22:44:25.468Z,100227.04
2018-07-14T22:46:53.674Z,100222.82
2018-07-14T22:49:21.850Z,100228.16
2018-07-14T22:51:50.046Z,100227.05
2018-07-14T22:54:18.121Z,100227.33
2018-07-14T22:56:46.193Z,100226.11
2018-07-14T22:59:14.547Z,100224.75
2018-07-14T23:01:42.842Z,100224.61
2018-07-14T23:04:10.911Z,100228.52
2018-07-14T23:06:39.043Z,100227.89
2018-07-14T23:09:07.631Z,100232.64
2018-07-14T23:11:35.787Z,100231.72
2018-07-14T23:14:03.960Z,100231.36
2018-07-14T23:16:32.118Z,100224.52
2018-07-14T23:19:00.311Z,100227.09
2018-07-14T23:21:28.418Z,100227.85
2018-07-14T23:23:56.546Z,100228.41
2018-07-14T23:26:24.600Z,100232.70
2018-07-14T23:28:52.660Z,100237.06
2018-07-14T23:31:20.753Z,100234.22
2018-07-14T23:33:48.891Z,100234.13
2018-07-14T23:36:17.024Z,100231.48
2018-07-14T23:38:45.087Z,100235.36
2018-07-14T23:41:13.190Z,100241.17
2018-07-14T23:43:41.363Z,100236.08
2018-07-14T23:46:09.617Z,100238.61
2018-07-14T23:48:37.667Z,100236.92
2018-07-14T23:51:06.103Z,100234.03
2018-07-14T23:53:34.154Z,100235.59
2018-07-14T23:56:02.521Z,100228.53
2018-07-14T23:58:30.566Z,100227.61
